sensor_id;sensor_type;location;lat;lon;timestamp;temperature;humidity
78779;DHT22;68121;52.404;5.318;2023-05-10T00:00:43;14.10;76.50
78779;DHT22;68121;52.404;5.318;2023-05-10T00:03:09;14.10;76.50
78779;DHT22;68121;52.404;5.318;2023-05-10T00:05:35;14.10;76.50
78779;DHT22;68121;52.404;5.318;2023-05-10T00:08:02;14.10;76.50
78779;DHT22;68121;52.404;5.318;2023-05-10T00:10:28;14.10;76.50
78779;DHT22;68121;52.404;5.318;2023-05-10T00:12:54;14.10;76.60
78779;DHT22;68121;52.404;5.318;2023-05-10T00:15:20;14.10;76.60
78779;DHT22;68121;52.404;5.318;2023-05-10T00:17:46;14.10;76.60
78779;DHT22;68121;52.404;5.318;2023-05-10T00:20:12;14.10;76.60
78779;DHT22;68121;52.404;5.318;2023-05-10T00:22:38;14.10;76.60
78779;DHT22;68121;52.404;5.318;2023-05-10T00:25:04;14.10;76.60
78779;DHT22;68121;52.404;5.318;2023-05-10T00:27:31;14.10;76.60
78779;DHT22;68121;52.404;5.318;2023-05-10T00:29:57;14.10;76.60
78779;DHT22;68121;52.404;5.318;2023-05-10T00:32:24;14.10;76.70
78779;DHT22;68121;52.404;5.318;2023-05-10T00:34:50;14.10;76.70
78779;DHT22;68121;52.404;5.318;2023-05-10T00:37:16;14.10;76.70
78779;DHT22;68121;52.404;5.318;2023-05-10T00:39:42;14.10;76.70
78779;DHT22;68121;52.404;5.318;2023-05-10T00:42:08;14.10;76.70
78779;DHT22;68121;52.404;5.318;2023-05-10T00:44:34;14.10;76.60
78779;DHT22;68121;52.404;5.318;2023-05-10T00:47:00;14.10;76.60
78779;DHT22;68121;52.404;5.318;2023-05-10T00:49:27;14.00;76.70
78779;DHT22;68121;52.404;5.318;2023-05-10T00:51:54;14.00;76.70
78779;DHT22;68121;52.404;5.318;2023-05-10T00:54:20;14.00;76.70
78779;DHT22;68121;52.404;5.318;2023-05-10T00:56:46;14.00;76.70
78779;DHT22;68121;52.404;5.318;2023-05-10T00:59:16;14.00;76.70
78779;DHT22;68121;52.404;5.318;2023-05-10T01:01:43;14.00;76.80
78779;DHT22;68121;52.404;5.318;2023-05-10T01:04:12;14.00;76.70
78779;DHT22;68121;52.404;5.318;2023-05-10T01:06:42;14.00;76.70
78779;DHT22;68121;52.404;5.318;2023-05-10T01:09:08;14.00;76.80
78779;DHT22;68121;52.404;5.318;2023-05-10T01:11:37;14.00;76.80
78779;DHT22;68121;52.404;5.318;2023-05-10T01:14:05;13.90;76.80
78779;DHT22;68121;52.404;5.318;2023-05-10T01:16:37;13.90;76.90
78779;DHT22;68121;52.404;5.318;2023-05-10T01:19:22;14.00;76.90
78779;DHT22;68121;52.404;5.318;2023-05-10T01:21:49;14.00;76.90
78779;DHT22;68121;52.404;5.318;2023-05-10T01:30:08;13.90;76.70
78779;DHT22;68121;52.404;5.318;2023-05-10T01:32:48;13.80;76.80
78779;DHT22;68121;52.404;5.318;2023-05-10T01:35:32;13.80;76.80
78779;DHT22;68121;52.404;5.318;2023-05-10T01:38:39;13.80;76.80
78779;DHT22;68121;52.404;5.318;2023-05-10T01:43:26;13.70;76.90
78779;DHT22;68121;52.404;5.318;2023-05-10T01:46:10;13.70;76.80
78779;DHT22;68121;52.404;5.318;2023-05-10T01:48:45;13.80;76.90
78779;DHT22;68121;52.404;5.318;2023-05-10T01:51:15;13.80;76.80
78779;DHT22;68121;52.404;5.318;2023-05-10T01:53:44;13.80;76.80
78779;DHT22;68121;52.404;5.318;2023-05-10T01:56:12;13.80;76.80
78779;DHT22;68121;52.404;5.318;2023-05-10T01:58:40;13.70;76.90
78779;DHT22;68121;52.404;5.318;2023-05-10T02:01:08;13.70;76.90
78779;DHT22;68121;52.404;5.318;2023-05-10T02:03:36;13.70;77.00
78779;DHT22;68121;52.404;5.318;2023-05-10T02:06:04;13.70;77.00
78779;DHT22;68121;52.404;5.318;2023-05-10T02:08:31;13.70;77.00
78779;DHT22;68121;52.404;5.318;2023-05-10T02:10:59;13.70;76.90
78779;DHT22;68121;52.404;5.318;2023-05-10T02:13:27;13.70;76.90
78779;DHT22;68121;52.404;5.318;2023-05-10T02:15:55;13.70;77.00
78779;DHT22;68121;52.404;5.318;2023-05-10T02:18:23;13.70;77.00
78779;DHT22;68121;52.404;5.318;2023-05-10T02:20:52;13.70;76.90
78779;DHT22;68121;52.404;5.318;2023-05-10T02:23:20;13.70;77.00
78779;DHT22;68121;52.404;5.318;2023-05-10T02:25:48;13.70;77.00
78779;DHT22;68121;52.404;5.318;2023-05-10T02:28:15;13.60;77.00
78779;DHT22;68121;52.404;5.318;2023-05-10T02:30:43;13.60;77.00
78779;DHT22;68121;52.404;5.318;2023-05-10T02:33:09;13.60;77.00
78779;DHT22;68121;52.404;5.318;2023-05-10T02:35:36;13.60;77.00
78779;DHT22;68121;52.404;5.318;2023-05-10T02:38:04;13.60;77.00
78779;DHT22;68121;52.404;5.318;2023-05-10T02:40:32;13.60;77.00
78779;DHT22;68121;52.404;5.318;2023-05-10T02:43:01;13.60;77.00
78779;DHT22;68121;52.404;5.318;2023-05-10T02:45:31;13.60;77.10
78779;DHT22;68121;52.404;5.318;2023-05-10T02:47:58;13.60;77.10
78779;DHT22;68121;52.404;5.318;2023-05-10T02:50:27;13.70;77.10
78779;DHT22;68121;52.404;5.318;2023-05-10T02:52:59;13.70;77.10
78779;DHT22;68121;52.404;5.318;2023-05-10T02:55:27;13.70;77.10
78779;DHT22;68121;52.404;5.318;2023-05-10T02:58:01;13.70;77.10
78779;DHT22;68121;52.404;5.318;2023-05-10T03:00:28;13.60;77.00
78779;DHT22;68121;52.404;5.318;2023-05-10T03:02:54;13.60;77.00
78779;DHT22;68121;52.404;5.318;2023-05-10T03:05:21;13.60;77.00
78779;DHT22;68121;52.404;5.318;2023-05-10T03:07:47;13.60;77.10
78779;DHT22;68121;52.404;5.318;2023-05-10T03:10:14;13.50;77.00
78779;DHT22;68121;52.404;5.318;2023-05-10T03:15:37;13.50;77.10
78779;DHT22;68121;52.404;5.318;2023-05-10T03:18:15;13.50;77.10
78779;DHT22;68121;52.404;5.318;2023-05-10T03:20:46;13.50;77.10
78779;DHT22;68121;52.404;5.318;2023-05-10T03:23:35;13.40;77.10
78779;DHT22;68121;52.404;5.318;2023-05-10T03:26:01;13.50;77.20
78779;DHT22;68121;52.404;5.318;2023-05-10T03:28:29;13.40;77.10
78779;DHT22;68121;52.404;5.318;2023-05-10T03:30:58;13.40;77.10
78779;DHT22;68121;52.404;5.318;2023-05-10T03:33:25;13.40;77.10
78779;DHT22;68121;52.404;5.318;2023-05-10T03:35:51;13.30;77.20
78779;DHT22;68121;52.404;5.318;2023-05-10T03:38:17;13.30;77.20
78779;DHT22;68121;52.404;5.318;2023-05-10T03:40:43;13.30;77.20
78779;DHT22;68121;52.404;5.318;2023-05-10T03:43:09;13.30;77.20
78779;DHT22;68121;52.404;5.318;2023-05-10T03:45:35;13.30;77.20
78779;DHT22;68121;52.404;5.318;2023-05-10T03:48:02;13.30;77.20
78779;DHT22;68121;52.404;5.318;2023-05-10T03:50:28;13.30;77.20
78779;DHT22;68121;52.404;5.318;2023-05-10T03:52:54;13.30;77.20
78779;DHT22;68121;52.404;5.318;2023-05-10T03:55:20;13.30;77.30
78779;DHT22;68121;52.404;5.318;2023-05-10T03:57:46;13.30;77.30
78779;DHT22;68121;52.404;5.318;2023-05-10T04:00:12;13.30;77.30
78779;DHT22;68121;52.404;5.318;2023-05-10T04:02:38;13.30;77.30
78779;DHT22;68121;52.404;5.318;2023-05-10T04:05:05;13.30;77.40
78779;DHT22;68121;52.404;5.318;2023-05-10T04:07:31;13.30;77.40
78779;DHT22;68121;52.404;5.318;2023-05-10T04:09:57;13.30;77.40
78779;DHT22;68121;52.404;5.318;2023-05-10T04:12:23;13.30;77.50
78779;DHT22;68121;52.404;5.318;2023-05-10T04:14:49;13.30;77.50
78779;DHT22;68121;52.404;5.318;2023-05-10T04:17:17;13.30;77.40
78779;DHT22;68121;52.404;5.318;2023-05-10T04:19:43;13.30;77.40
78779;DHT22;68121;52.404;5.318;2023-05-10T04:22:09;13.40;77.30
78779;DHT22;68121;52.404;5.318;2023-05-10T04:24:35;13.30;77.30
78779;DHT22;68121;52.404;5.318;2023-05-10T04:27:01;13.30;77.30
78779;DHT22;68121;52.404;5.318;2023-05-10T04:29:27;13.30;77.20
78779;DHT22;68121;52.404;5.318;2023-05-10T04:31:53;13.30;77.20
78779;DHT22;68121;52.404;5.318;2023-05-10T04:34:21;13.30;77.30
78779;DHT22;68121;52.404;5.318;2023-05-10T04:36:47;13.30;77.20
78779;DHT22;68121;52.404;5.318;2023-05-10T04:39:13;13.30;77.20
78779;DHT22;68121;52.404;5.318;2023-05-10T04:41:39;13.30;77.10
78779;DHT22;68121;52.404;5.318;2023-05-10T04:44:05;13.30;77.10
78779;DHT22;68121;52.404;5.318;2023-05-10T04:46:32;13.20;77.10
78779;DHT22;68121;52.404;5.318;2023-05-10T04:48:58;13.20;77.10
78779;DHT22;68121;52.404;5.318;2023-05-10T04:51:24;13.20;77.10
78779;DHT22;68121;52.404;5.318;2023-05-10T04:53:50;13.20;77.00
78779;DHT22;68121;52.404;5.318;2023-05-10T04:56:16;13.10;77.10
78779;DHT22;68121;52.404;5.318;2023-05-10T04:58:42;13.30;77.10
78779;DHT22;68121;52.404;5.318;2023-05-10T05:01:08;13.30;77.00
78779;DHT22;68121;52.404;5.318;2023-05-10T05:03:36;13.30;76.80
78779;DHT22;68121;52.404;5.318;2023-05-10T05:06:03;13.30;76.80
78779;DHT22;68121;52.404;5.318;2023-05-10T05:08:29;13.30;76.70
78779;DHT22;68121;52.404;5.318;2023-05-10T05:10:55;13.30;76.60
78779;DHT22;68121;52.404;5.318;2023-05-10T05:13:21;13.30;76.60
78779;DHT22;68121;52.404;5.318;2023-05-10T05:15:47;13.30;76.60
78779;DHT22;68121;52.404;5.318;2023-05-10T05:18:13;13.20;76.70
78779;DHT22;68121;52.404;5.318;2023-05-10T05:20:39;13.10;76.60
78779;DHT22;68121;52.404;5.318;2023-05-10T05:23:06;13.10;76.60
78779;DHT22;68121;52.404;5.318;2023-05-10T05:25:32;13.10;76.60
78779;DHT22;68121;52.404;5.318;2023-05-10T05:27:58;13.10;76.60
78779;DHT22;68121;52.404;5.318;2023-05-10T05:30:24;13.10;76.60
78779;DHT22;68121;52.404;5.318;2023-05-10T05:32:50;13.10;76.60
78779;DHT22;68121;52.404;5.318;2023-05-10T05:35:16;13.10;76.60
78779;DHT22;68121;52.404;5.318;2023-05-10T05:37:42;13.20;76.50
78779;DHT22;68121;52.404;5.318;2023-05-10T05:40:11;13.20;76.50
78779;DHT22;68121;52.404;5.318;2023-05-10T05:42:38;13.30;76.40
78779;DHT22;68121;52.404;5.318;2023-05-10T05:45:04;13.30;76.40
78779;DHT22;68121;52.404;5.318;2023-05-10T05:47:31;13.30;76.40
78779;DHT22;68121;52.404;5.318;2023-05-10T05:49:57;13.30;76.40
78779;DHT22;68121;52.404;5.318;2023-05-10T05:52:23;13.30;76.30
78779;DHT22;68121;52.404;5.318;2023-05-10T05:54:49;13.30;76.20
78779;DHT22;68121;52.404;5.318;2023-05-10T05:57:15;13.30;76.20
78779;DHT22;68121;52.404;5.318;2023-05-10T05:59:41;13.30;76.20
78779;DHT22;68121;52.404;5.318;2023-05-10T06:02:10;13.30;76.20
78779;DHT22;68121;52.404;5.318;2023-05-10T06:04:36;13.30;76.20
78779;DHT22;68121;52.404;5.318;2023-05-10T06:07:02;13.30;76.20
78779;DHT22;68121;52.404;5.318;2023-05-10T06:09:28;13.30;76.20
78779;DHT22;68121;52.404;5.318;2023-05-10T06:11:54;13.30;76.10
78779;DHT22;68121;52.404;5.318;2023-05-10T06:14:20;13.40;76.10
78779;DHT22;68121;52.404;5.318;2023-05-10T06:16:46;13.40;76.10
78779;DHT22;68121;52.404;5.318;2023-05-10T06:19:12;13.40;76.00
78779;DHT22;68121;52.404;5.318;2023-05-10T06:21:38;13.30;75.90
78779;DHT22;68121;52.404;5.318;2023-05-10T06:24:05;13.30;76.00
78779;DHT22;68121;52.404;5.318;2023-05-10T06:26:33;13.30;75.90
78779;DHT22;68121;52.404;5.318;2023-05-10T06:28:59;13.30;75.90
78779;DHT22;68121;52.404;5.318;2023-05-10T06:31:25;13.30;75.90
78779;DHT22;68121;52.404;5.318;2023-05-10T06:33:51;13.30;75.90
78779;DHT22;68121;52.404;5.318;2023-05-10T06:36:17;13.30;75.90
78779;DHT22;68121;52.404;5.318;2023-05-10T06:38:43;13.30;75.80
78779;DHT22;68121;52.404;5.318;2023-05-10T06:41:09;13.30;75.80
78779;DHT22;68121;52.404;5.318;2023-05-10T06:43:35;13.30;75.80
78779;DHT22;68121;52.404;5.318;2023-05-10T06:46:02;13.30;75.70
78779;DHT22;68121;52.404;5.318;2023-05-10T06:48:28;13.30;75.70
78779;DHT22;68121;52.404;5.318;2023-05-10T06:50:55;13.30;75.70
78779;DHT22;68121;52.404;5.318;2023-05-10T06:53:21;13.30;75.60
78779;DHT22;68121;52.404;5.318;2023-05-10T06:55:49;13.30;75.60
78779;DHT22;68121;52.404;5.318;2023-05-10T06:58:15;13.30;75.60
78779;DHT22;68121;52.404;5.318;2023-05-10T07:00:41;13.30;75.60
78779;DHT22;68121;52.404;5.318;2023-05-10T07:03:12;13.30;75.50
78779;DHT22;68121;52.404;5.318;2023-05-10T07:05:38;13.40;75.60
78779;DHT22;68121;52.404;5.318;2023-05-10T07:08:04;13.50;75.50
78779;DHT22;68121;52.404;5.318;2023-05-10T07:10:30;13.50;75.50
78779;DHT22;68121;52.404;5.318;2023-05-10T07:12:56;13.50;75.40
78779;DHT22;68121;52.404;5.318;2023-05-10T07:15:22;13.50;75.40
78779;DHT22;68121;52.404;5.318;2023-05-10T07:17:49;13.50;75.40
78779;DHT22;68121;52.404;5.318;2023-05-10T07:20:15;13.50;75.30
78779;DHT22;68121;52.404;5.318;2023-05-10T07:22:41;13.50;75.20
78779;DHT22;68121;52.404;5.318;2023-05-10T07:25:07;13.50;75.20
78779;DHT22;68121;52.404;5.318;2023-05-10T07:27:33;13.50;75.20
78779;DHT22;68121;52.404;5.318;2023-05-10T07:29:59;13.60;75.40
78779;DHT22;68121;52.404;5.318;2023-05-10T07:32:26;13.70;75.20
78779;DHT22;68121;52.404;5.318;2023-05-10T07:34:52;13.80;75.10
78779;DHT22;68121;52.404;5.318;2023-05-10T07:37:18;13.80;74.80
78779;DHT22;68121;52.404;5.318;2023-05-10T07:39:45;13.80;74.80
78779;DHT22;68121;52.404;5.318;2023-05-10T07:42:11;13.70;74.70
78779;DHT22;68121;52.404;5.318;2023-05-10T07:44:37;13.70;74.70
78779;DHT22;68121;52.404;5.318;2023-05-10T07:47:03;13.70;74.70
78779;DHT22;68121;52.404;5.318;2023-05-10T07:49:29;13.70;74.70
78779;DHT22;68121;52.404;5.318;2023-05-10T07:51:55;13.70;74.70
78779;DHT22;68121;52.404;5.318;2023-05-10T07:54:21;13.80;74.70
78779;DHT22;68121;52.404;5.318;2023-05-10T07:56:47;13.80;74.60
78779;DHT22;68121;52.404;5.318;2023-05-10T07:59:17;13.80;74.50
78779;DHT22;68121;52.404;5.318;2023-05-10T08:01:43;13.90;74.50
78779;DHT22;68121;52.404;5.318;2023-05-10T08:04:10;13.90;74.40
78779;DHT22;68121;52.404;5.318;2023-05-10T08:06:37;13.90;74.40
78779;DHT22;68121;52.404;5.318;2023-05-10T08:09:03;13.90;74.40
78779;DHT22;68121;52.404;5.318;2023-05-10T08:11:29;13.90;74.30
78779;DHT22;68121;52.404;5.318;2023-05-10T08:13:55;14.00;74.20
78779;DHT22;68121;52.404;5.318;2023-05-10T08:16:21;14.00;74.20
78779;DHT22;68121;52.404;5.318;2023-05-10T08:18:47;14.10;74.10
78779;DHT22;68121;52.404;5.318;2023-05-10T08:21:15;14.10;74.00
78779;DHT22;68121;52.404;5.318;2023-05-10T08:23:42;14.10;74.10
78779;DHT22;68121;52.404;5.318;2023-05-10T08:26:09;14.10;73.90
78779;DHT22;68121;52.404;5.318;2023-05-10T08:28:35;14.10;74.00
78779;DHT22;68121;52.404;5.318;2023-05-10T08:31:01;14.10;74.00
78779;DHT22;68121;52.404;5.318;2023-05-10T08:33:27;14.20;73.90
78779;DHT22;68121;52.404;5.318;2023-05-10T08:35:53;14.10;73.90
78779;DHT22;68121;52.404;5.318;2023-05-10T08:38:19;14.20;74.00
78779;DHT22;68121;52.404;5.318;2023-05-10T08:40:46;14.20;73.90
78779;DHT22;68121;52.404;5.318;2023-05-10T08:43:14;14.20;74.00
78779;DHT22;68121;52.404;5.318;2023-05-10T08:45:44;14.30;73.90
78779;DHT22;68121;52.404;5.318;2023-05-10T08:48:14;14.30;73.90
78779;DHT22;68121;52.404;5.318;2023-05-10T08:50:41;14.40;73.80
78779;DHT22;68121;52.404;5.318;2023-05-10T08:53:12;14.50;73.70
78779;DHT22;68121;52.404;5.318;2023-05-10T08:55:40;14.60;73.50
78779;DHT22;68121;52.404;5.318;2023-05-10T08:58:08;14.60;73.30
78779;DHT22;68121;52.404;5.318;2023-05-10T09:00:36;14.70;73.10
78779;DHT22;68121;52.404;5.318;2023-05-10T09:03:04;14.70;73.00
78779;DHT22;68121;52.404;5.318;2023-05-10T09:05:30;14.80;73.00
78779;DHT22;68121;52.404;5.318;2023-05-10T09:07:57;14.80;72.90
78779;DHT22;68121;52.404;5.318;2023-05-10T09:10:23;14.90;72.90
78779;DHT22;68121;52.404;5.318;2023-05-10T09:12:52;14.90;72.80
78779;DHT22;68121;52.404;5.318;2023-05-10T09:15:19;14.90;72.70
78779;DHT22;68121;52.404;5.318;2023-05-10T09:17:46;14.90;72.80
78779;DHT22;68121;52.404;5.318;2023-05-10T09:20:12;14.90;72.80
78779;DHT22;68121;52.404;5.318;2023-05-10T09:22:39;15.00;72.80
78779;DHT22;68121;52.404;5.318;2023-05-10T09:25:09;15.10;72.60
78779;DHT22;68121;52.404;5.318;2023-05-10T09:27:38;15.20;72.50
78779;DHT22;68121;52.404;5.318;2023-05-10T09:30:05;15.40;72.50
78779;DHT22;68121;52.404;5.318;2023-05-10T09:32:43;15.50;72.20
78779;DHT22;68121;52.404;5.318;2023-05-10T09:35:21;15.70;71.80
78779;DHT22;68121;52.404;5.318;2023-05-10T09:37:50;15.80;71.50
78779;DHT22;68121;52.404;5.318;2023-05-10T09:40:18;15.80;71.30
78779;DHT22;68121;52.404;5.318;2023-05-10T09:42:56;15.90;71.20
78779;DHT22;68121;52.404;5.318;2023-05-10T09:45:24;15.80;70.90
78779;DHT22;68121;52.404;5.318;2023-05-10T09:47:51;15.80;70.90
78779;DHT22;68121;52.404;5.318;2023-05-10T09:50:17;15.80;70.90
78779;DHT22;68121;52.404;5.318;2023-05-10T09:52:52;15.80;70.80
78779;DHT22;68121;52.404;5.318;2023-05-10T09:55:24;15.90;70.70
78779;DHT22;68121;52.404;5.318;2023-05-10T09:57:59;15.90;70.70
78779;DHT22;68121;52.404;5.318;2023-05-10T10:00:26;16.00;70.50
78779;DHT22;68121;52.404;5.318;2023-05-10T10:02:59;15.90;70.50
78779;DHT22;68121;52.404;5.318;2023-05-10T10:05:29;15.90;70.40
78779;DHT22;68121;52.404;5.318;2023-05-10T10:07:58;15.80;70.40
78779;DHT22;68121;52.404;5.318;2023-05-10T10:10:25;15.80;70.50
78779;DHT22;68121;52.404;5.318;2023-05-10T10:12:52;15.80;70.50
78779;DHT22;68121;52.404;5.318;2023-05-10T10:15:20;15.80;70.60
78779;DHT22;68121;52.404;5.318;2023-05-10T10:17:46;15.80;70.60
78779;DHT22;68121;52.404;5.318;2023-05-10T10:20:14;15.80;70.60
78779;DHT22;68121;52.404;5.318;2023-05-10T10:22:40;15.80;70.50
78779;DHT22;68121;52.404;5.318;2023-05-10T10:25:08;15.80;70.40
78779;DHT22;68121;52.404;5.318;2023-05-10T10:35:53;16.00;69.80
78779;DHT22;68121;52.404;5.318;2023-05-10T10:38:19;16.10;69.60
78779;DHT22;68121;52.404;5.318;2023-05-10T10:40:47;16.20;69.50
78779;DHT22;68121;52.404;5.318;2023-05-10T10:43:29;16.30;69.30
78779;DHT22;68121;52.404;5.318;2023-05-10T10:46:15;16.40;69.00
78779;DHT22;68121;52.404;5.318;2023-05-10T10:48:50;16.40;68.90
78779;DHT22;68121;52.404;5.318;2023-05-10T10:51:37;16.50;68.80
78779;DHT22;68121;52.404;5.318;2023-05-10T10:54:10;16.50;68.70
78779;DHT22;68121;52.404;5.318;2023-05-10T10:56:36;16.50;68.50
78779;DHT22;68121;52.404;5.318;2023-05-10T10:59:02;16.60;68.50
78779;DHT22;68121;52.404;5.318;2023-05-10T11:01:35;16.60;68.30
78779;DHT22;68121;52.404;5.318;2023-05-10T11:06:36;16.60;68.10
78779;DHT22;68121;52.404;5.318;2023-05-10T11:09:07;16.60;68.00
78779;DHT22;68121;52.404;5.318;2023-05-10T11:11:35;16.50;68.10
78779;DHT22;68121;52.404;5.318;2023-05-10T11:14:06;16.50;68.00
78779;DHT22;68121;52.404;5.318;2023-05-10T11:16:43;16.60;67.80
78779;DHT22;68121;52.404;5.318;2023-05-10T11:19:12;16.60;67.80
78779;DHT22;68121;52.404;5.318;2023-05-10T11:21:50;16.70;67.70
78779;DHT22;68121;52.404;5.318;2023-05-10T11:24:19;16.70;67.50
78779;DHT22;68121;52.404;5.318;2023-05-10T11:26:45;16.70;67.50
78779;DHT22;68121;52.404;5.318;2023-05-10T11:29:13;16.70;67.30
78779;DHT22;68121;52.404;5.318;2023-05-10T11:31:43;16.70;67.30
78779;DHT22;68121;52.404;5.318;2023-05-10T11:34:11;16.70;67.20
78779;DHT22;68121;52.404;5.318;2023-05-10T11:36:37;16.70;67.30
78779;DHT22;68121;52.404;5.318;2023-05-10T11:39:04;16.60;67.30
78779;DHT22;68121;52.404;5.318;2023-05-10T11:41:31;16.60;67.20
78779;DHT22;68121;52.404;5.318;2023-05-10T11:43:58;16.60;67.20
78779;DHT22;68121;52.404;5.318;2023-05-10T11:46:26;16.60;67.20
78779;DHT22;68121;52.404;5.318;2023-05-10T11:48:57;16.60;67.20
78779;DHT22;68121;52.404;5.318;2023-05-10T11:51:24;16.50;67.20
78779;DHT22;68121;52.404;5.318;2023-05-10T11:53:53;16.50;67.30
78779;DHT22;68121;52.404;5.318;2023-05-10T11:56:20;16.50;67.30
78779;DHT22;68121;52.404;5.318;2023-05-10T11:58:55;16.50;67.40
78779;DHT22;68121;52.404;5.318;2023-05-10T12:01:22;16.50;67.50
78779;DHT22;68121;52.404;5.318;2023-05-10T12:03:50;16.60;67.50
78779;DHT22;68121;52.404;5.318;2023-05-10T12:06:18;16.60;67.30
78779;DHT22;68121;52.404;5.318;2023-05-10T12:08:45;16.60;67.20
78779;DHT22;68121;52.404;5.318;2023-05-10T12:11:13;16.60;67.10
78779;DHT22;68121;52.404;5.318;2023-05-10T12:13:43;16.60;67.10
78779;DHT22;68121;52.404;5.318;2023-05-10T12:16:19;16.60;67.20
78779;DHT22;68121;52.404;5.318;2023-05-10T12:18:53;16.60;67.40
78779;DHT22;68121;52.404;5.318;2023-05-10T12:21:21;16.60;67.40
78779;DHT22;68121;52.404;5.318;2023-05-10T12:23:52;16.50;67.50
78779;DHT22;68121;52.404;5.318;2023-05-10T12:26:21;16.60;67.60
78779;DHT22;68121;52.404;5.318;2023-05-10T12:28:48;16.60;67.70
78779;DHT22;68121;52.404;5.318;2023-05-10T12:31:14;16.60;67.70
78779;DHT22;68121;52.404;5.318;2023-05-10T12:33:42;16.60;67.60
78779;DHT22;68121;52.404;5.318;2023-05-10T12:36:23;16.60;67.70
78779;DHT22;68121;52.404;5.318;2023-05-10T12:38:49;16.60;67.60
78779;DHT22;68121;52.404;5.318;2023-05-10T12:41:17;16.60;67.70
78779;DHT22;68121;52.404;5.318;2023-05-10T12:43:44;16.70;67.60
78779;DHT22;68121;52.404;5.318;2023-05-10T12:46:13;16.70;67.50
78779;DHT22;68121;52.404;5.318;2023-05-10T12:48:41;16.80;67.30
78779;DHT22;68121;52.404;5.318;2023-05-10T12:51:07;16.90;67.20
78779;DHT22;68121;52.404;5.318;2023-05-10T12:53:42;16.90;67.10
78779;DHT22;68121;52.404;5.318;2023-05-10T12:56:11;17.00;66.90
78779;DHT22;68121;52.404;5.318;2023-05-10T12:58:38;17.00;66.80
78779;DHT22;68121;52.404;5.318;2023-05-10T13:01:05;17.00;66.70
78779;DHT22;68121;52.404;5.318;2023-05-10T13:03:31;17.20;66.50
78779;DHT22;68121;52.404;5.318;2023-05-10T13:05:57;17.20;66.30
78779;DHT22;68121;52.404;5.318;2023-05-10T13:08:23;17.20;66.20
78779;DHT22;68121;52.404;5.318;2023-05-10T13:10:49;17.40;66.00
78779;DHT22;68121;52.404;5.318;2023-05-10T13:13:15;17.50;65.60
78779;DHT22;68121;52.404;5.318;2023-05-10T13:15:41;17.60;65.30
78779;DHT22;68121;52.404;5.318;2023-05-10T13:18:07;17.70;65.10
78779;DHT22;68121;52.404;5.318;2023-05-10T13:20:33;17.80;64.70
78779;DHT22;68121;52.404;5.318;2023-05-10T13:22:59;17.80;64.80
78779;DHT22;68121;52.404;5.318;2023-05-10T13:25:26;17.80;64.90
78779;DHT22;68121;52.404;5.318;2023-05-10T13:27:52;17.80;64.70
78779;DHT22;68121;52.404;5.318;2023-05-10T13:30:20;17.80;64.40
78779;DHT22;68121;52.404;5.318;2023-05-10T13:32:46;17.80;64.20
78779;DHT22;68121;52.404;5.318;2023-05-10T13:35:13;17.80;64.20
78779;DHT22;68121;52.404;5.318;2023-05-10T13:37:39;17.80;64.20
78779;DHT22;68121;52.404;5.318;2023-05-10T13:40:05;17.60;64.40
78779;DHT22;68121;52.404;5.318;2023-05-10T13:42:31;17.60;64.60
78779;DHT22;68121;52.404;5.318;2023-05-10T13:45:00;17.60;64.70
78779;DHT22;68121;52.404;5.318;2023-05-10T13:47:27;17.60;64.80
78779;DHT22;68121;52.404;5.318;2023-05-10T13:49:53;17.50;64.80
78779;DHT22;68121;52.404;5.318;2023-05-10T13:52:19;17.50;64.80
78779;DHT22;68121;52.404;5.318;2023-05-10T13:54:45;17.50;64.80
78779;DHT22;68121;52.404;5.318;2023-05-10T13:57:12;17.50;64.90
78779;DHT22;68121;52.404;5.318;2023-05-10T13:59:39;17.50;65.00
78779;DHT22;68121;52.404;5.318;2023-05-10T14:02:06;17.50;65.00
78779;DHT22;68121;52.404;5.318;2023-05-10T14:04:32;17.50;65.10
78779;DHT22;68121;52.404;5.318;2023-05-10T14:06:58;17.50;65.20
78779;DHT22;68121;52.404;5.318;2023-05-10T14:09:24;17.50;65.30
78779;DHT22;68121;52.404;5.318;2023-05-10T14:11:50;17.50;65.30
78779;DHT22;68121;52.404;5.318;2023-05-10T14:14:16;17.40;65.30
78779;DHT22;68121;52.404;5.318;2023-05-10T14:16:43;17.40;65.20
78779;DHT22;68121;52.404;5.318;2023-05-10T14:19:10;17.40;65.40
78779;DHT22;68121;52.404;5.318;2023-05-10T14:21:37;17.40;65.50
78779;DHT22;68121;52.404;5.318;2023-05-10T14:24:04;17.40;65.50
78779;DHT22;68121;52.404;5.318;2023-05-10T14:26:30;17.40;65.50
78779;DHT22;68121;52.404;5.318;2023-05-10T14:28:56;17.40;65.50
78779;DHT22;68121;52.404;5.318;2023-05-10T14:31:22;17.30;65.50
78779;DHT22;68121;52.404;5.318;2023-05-10T14:33:50;17.20;65.50
78779;DHT22;68121;52.404;5.318;2023-05-10T14:36:17;17.10;65.60
78779;DHT22;68121;52.404;5.318;2023-05-10T14:38:43;17.00;65.80
78779;DHT22;68121;52.404;5.318;2023-05-10T14:41:09;17.00;65.90
78779;DHT22;68121;52.404;5.318;2023-05-10T14:43:39;17.00;65.90
78779;DHT22;68121;52.404;5.318;2023-05-10T14:46:05;17.10;65.80
78779;DHT22;68121;52.404;5.318;2023-05-10T14:48:32;17.10;65.90
78779;DHT22;68121;52.404;5.318;2023-05-10T14:50:58;17.20;66.00
78779;DHT22;68121;52.404;5.318;2023-05-10T14:53:24;17.20;65.90
78779;DHT22;68121;52.404;5.318;2023-05-10T14:55:50;17.20;65.80
78779;DHT22;68121;52.404;5.318;2023-05-10T14:58:16;17.20;65.70
78779;DHT22;68121;52.404;5.318;2023-05-10T15:00:42;17.10;65.60
78779;DHT22;68121;52.404;5.318;2023-05-10T15:03:09;17.00;65.50
78779;DHT22;68121;52.404;5.318;2023-05-10T15:05:35;17.00;65.50
78779;DHT22;68121;52.404;5.318;2023-05-10T15:08:03;17.00;65.60
78779;DHT22;68121;52.404;5.318;2023-05-10T15:10:30;16.90;65.90
78779;DHT22;68121;52.404;5.318;2023-05-10T15:12:56;16.90;66.10
78779;DHT22;68121;52.404;5.318;2023-05-10T15:15:22;16.90;66.00
78779;DHT22;68121;52.404;5.318;2023-05-10T15:17:48;16.90;66.00
78779;DHT22;68121;52.404;5.318;2023-05-10T15:20:14;16.90;66.10
78779;DHT22;68121;52.404;5.318;2023-05-10T15:22:40;16.90;66.00
78779;DHT22;68121;52.404;5.318;2023-05-10T15:25:07;16.90;65.90
78779;DHT22;68121;52.404;5.318;2023-05-10T15:27:33;16.80;66.10
78779;DHT22;68121;52.404;5.318;2023-05-10T15:29:59;16.80;66.10
78779;DHT22;68121;52.404;5.318;2023-05-10T15:32:26;16.70;66.20
78779;DHT22;68121;52.404;5.318;2023-05-10T15:34:52;16.60;66.30
78779;DHT22;68121;52.404;5.318;2023-05-10T15:37:18;16.60;66.30
78779;DHT22;68121;52.404;5.318;2023-05-10T15:39:44;16.50;66.30
78779;DHT22;68121;52.404;5.318;2023-05-10T15:42:10;16.50;66.50
78779;DHT22;68121;52.404;5.318;2023-05-10T15:44:36;16.50;66.70
78779;DHT22;68121;52.404;5.318;2023-05-10T15:47:04;16.50;66.70
78779;DHT22;68121;52.404;5.318;2023-05-10T15:49:31;16.60;66.70
78779;DHT22;68121;52.404;5.318;2023-05-10T15:51:58;16.80;66.50
78779;DHT22;68121;52.404;5.318;2023-05-10T15:54:24;16.80;66.20